Bay Shore, Michigan
Current Conditions -  °F | °C
As of 4:54 AM on Saturday 25 Oct 2014 (Local Time) from KCVX Reporting Station
Overcast Overcast  
Wind Chill: 55°   Ceiling: 1200
Heat Index: 55°   Visibility: 7mi
Dew Point: 53°   Wind: 15mph
Humidity: 91%   Direction: 250°WSW
Pressure: 29.77"   Gusts: 21mph
Location:  45.36°N, 85.1°W
Report Text: KCVX 250854Z AUTO 25013G18KT 7SM OVC012 13/11 A2977 RMK AO2 T01280114
Loading
Personal Weather Stations






























Interactive Weather Map
Tropical Storm Tracking
New forecast layout! Learn more

10-Day Weather Forecast

Advertisements
Track Severe Weather on mobile